Roches Point, Ireland

12:10 AM IST on July 26, 2016 (GMT +0100)
Cork | | Change Station

Elev 60 ft 51.90 °N, 8.40 °W | Updated 51 seconds ago

Scattered Clouds
Scattered Clouds
59.4 °F
Feels Like 59.4 °F
N
3.0
Wind Variable Wind from SSE
Gusts 3.0 mph

Today
High -- | Low -- °F
--% Chance of Precip.
Yesterday
High -- | Low -- °F
Precip. -- in
Pressure 30.15 in
Visibility 6.2 miles
Clouds Few 1400 ft
Scattered Clouds 5000 ft
Dew Point Not available.
Humidity Not available.
Rainfall 0.00 in
Snow Depth Not available.
5:47 AM 9:30 PM
Waning Gibbous, 61% visible
METAR EICK 252300Z 22003KT 9999 FEW014 SCT050 12/12 Q1021 NOSIG
Pressure 30.15 in
Visibility 6.2 miles
Clouds Few 1400 ft
Scattered Clouds 5000 ft
Dew Point Not available.
Humidity Not available.
Rainfall 0.00 in
Snow Depth Not available.
5:47 AM 9:30 PM
Waning Gibbous, 61% visible
METAR EICK 252300Z 22003KT 9999 FEW014 SCT050 12/12 Q1021 NOSIG

10-Day Weather Forecast

×

Almanac

Astronomy

Jul. 26, 2016 Rise Set
Actual Time
Civil Twilight
Nautical Twilight
Astronomical Twilight
Moon
Length of Visible Light
Length of Day
Tomorrow will be .
, % of the Moon is Illuminated

Today's Extremes

Country Highs Country Lows

Community

WunderPhotos

Upload Photos

1,927,441 photos uploaded!

WunderBlog® & News

Nearby

Air Quality

  Air Quality AQ Index Pollutant
Not available.

Snow Depth

Station Depth Elevation

Earthquake Activity

City Distance Mag. Time & Date
Minimum magnitude displayed is 2.5.

Coastal Water Temperatures

Place Temperature

Stations

Nearby Weather Stations

Station Location Temp. Windchill Dew Point Humidity Wind Precip. Elev Updated Type